This is the latest recevied weather packets stored in our database for station/object AA1FF. If no packets are shown the sender has not sent any weather packets the latest 10 day(s).
| Time | Temp. | Humidity | Pressure | Rain* | Wind** | Luminosity | Snow |
|---|---|---|---|---|---|---|---|
| 1777846124 | 11.67° C | 38% | 1008 hPa | 0 mm | - | 258 W/m² | - |
| 1777845823 | 11.67° C | 37% | 1008 hPa | 0 mm | - | 260 W/m² | - |
| 1777845523 | 11.67° C | 37% | 1008 hPa | 0 mm | - | 136 W/m² | - |
| 1777845223 | 11.67° C | 38% | 1008 hPa | 0 mm | - | 316 W/m² | - |
| 1777844923 | 11.67° C | 37% | 1008 hPa | 0 mm | - | 345 W/m² | - |
| 1777844624 | 11.67° C | 37% | 1008 hPa | 0 mm | - | 244 W/m² | - |
| 1777844323 | 11.67° C | 39% | 1008 hPa | 0 mm | - | 314 W/m² | - |
| 1777844023 | 11.11° C | 38% | 1008 hPa | 0 mm | - | 185 W/m² | - |
| 1777843723 | 11.11° C | 38% | 1008 hPa | 0 mm | - | 203 W/m² | - |
| 1777843424 | 11.11° C | 38% | 1008 hPa | 0 mm | - | 332 W/m² | - |
| 1777843125 | 11.11° C | 38% | 1008 hPa | 0 mm | - | 178 W/m² | - |
| 1777842823 | 11.11° C | 41% | 1008 hPa | 0 mm | - | 357 W/m² | - |
| 1777842524 | 11.11° C | 39% | 1008 hPa | 0 mm | - | 209 W/m² | - |
| 1777842223 | 11.11° C | 40% | 1008 hPa | 0 mm | - | 223 W/m² | - |
| 1777841923 | 11.11° C | 38% | 1008 hPa | 0 mm | - | 196 W/m² | - |
| 1777841623 | 11.11° C | 39% | 1008 hPa | 0 mm | - | 247 W/m² | - |
| 1777841324 | 11.11° C | 40% | 1008 hPa | 0 mm | - | 251 W/m² | - |
| 1777841023 | 11.11° C | 40% | 1008 hPa | 0 mm | - | 306 W/m² | - |
| 1777840723 | 11.11° C | 41% | 1008 hPa | 0 mm | - | 197 W/m² | - |
| 1777840424 | 10.56° C | 40% | 1008 hPa | 0 mm | - | 196 W/m² | - |
| 1777840123 | 11.11° C | 40% | 1007 hPa | 0 mm | - | 198 W/m² | - |
| 1777839824 | 11.11° C | 39% | 1007 hPa | 0 mm | - | 187 W/m² | - |
| 1777839523 | 11.11° C | 39% | 1007 hPa | 0 mm | - | 283 W/m² | - |
| 1777839223 | 10.56° C | 40% | 1007 hPa | 0 mm | - | 296 W/m² | - |
| 1777838924 | 11.11° C | 39% | 1007 hPa | 0 mm | - | 234 W/m² | - |
* Rain latest hour (hover to see other rain measurements)
** Current wind speed in m/s (hover to see current wind gust speed)